Pagina principale
METAR-TAF:

METAR-TAF

Aeroporti :

Wellington, Nuova Zelanda

Aeroporto di Wellington

latitudine: 41-20S, longitudine: 174-48E, altezza: 12 m

Osservazione

Il bollettino è stato emesso 34 minuti fa, alle 17:00 UTC
Vento 16 kt da nord
Temperature 16°C
Umidità 72%
Pressione 1011 hPa
Visibilità 10 km o più

METAR: NZWN 191700Z AUTO 35016KT 9999 NCD 16/11 Q1011 NOSIG

Ora: 05:34 (17:34 UTC)

Previsione

Il bollettino è stato emesso 6 ore e 26 minuti fa, alle 11:08 UTC
Previsione valida dal 19 alle 12 UTC al 20 alle 12 UTC
Vento 20 kt da nord/nord-ovest con raffiche fino a 30 kt
Visibilità 10 km o più
Poco nuvoloso ad un'altezza di 4000 ft
Evoluzione graduale
dal 19 alle 22 UTC al 20 alle 00 UTC
Vento 25 kt da nord/nord-ovest con raffiche fino a 40 kt

TAF: NZWN 191108Z 1912/2012 34020G30KT 9999 FEW040 BECMG 1922/2000 34025G40KT

Osservazioni e previsioni meteorologiche di più di 4000 aeroporti (messaggi METAR e TAF).

Le stazioni disponibili sono rappresentate dai dischi gialli e rossi sulla carta.

Puntare il mouse per vedere il nome della stazione.

Clicca sopra per visualizzare le osservazioni e previsioni meteorologiche.

Per cambiare la mappa : fare clic sui pulsanti verdi con una croce nera per ingrandire, il pulsante verde con un trattino per diminuire, o sulla freccia verde per le mappe adiacenti.


METAR-TAF: